sensor_id;sensor_type;location;lat;lon;timestamp;P1;durP1;ratioP1;P2;durP2;ratioP2
81036;SDS011;70521;47.468;19.306;2023-10-31T00:01:13;12.48;;;11.20;;
81036;SDS011;70521;47.468;19.306;2023-10-31T00:04:15;13.82;;;12.43;;
81036;SDS011;70521;47.468;19.306;2023-10-31T00:07:16;14.68;;;13.27;;
81036;SDS011;70521;47.468;19.306;2023-10-31T00:10:17;14.25;;;13.18;;
81036;SDS011;70521;47.468;19.306;2023-10-31T00:13:18;15.63;;;14.30;;
81036;SDS011;70521;47.468;19.306;2023-10-31T00:16:19;14.20;;;12.65;;
81036;SDS011;70521;47.468;19.306;2023-10-31T00:19:20;15.43;;;13.93;;
81036;SDS011;70521;47.468;19.306;2023-10-31T00:22:21;12.48;;;11.18;;
81036;SDS011;70521;47.468;19.306;2023-10-31T00:25:23;14.63;;;13.23;;
81036;SDS011;70521;47.468;19.306;2023-10-31T00:28:24;13.27;;;11.98;;
81036;SDS011;70521;47.468;19.306;2023-10-31T00:31:25;14.32;;;13.10;;
81036;SDS011;70521;47.468;19.306;2023-10-31T00:34:26;14.27;;;12.88;;
81036;SDS011;70521;47.468;19.306;2023-10-31T00:37:27;14.00;;;12.18;;
81036;SDS011;70521;47.468;19.306;2023-10-31T00:40:28;13.55;;;12.35;;
81036;SDS011;70521;47.468;19.306;2023-10-31T00:43:31;11.90;;;10.75;;
81036;SDS011;70521;47.468;19.306;2023-10-31T00:46:32;12.40;;;11.18;;
81036;SDS011;70521;47.468;19.306;2023-10-31T00:49:33;12.63;;;11.52;;
81036;SDS011;70521;47.468;19.306;2023-10-31T00:52:34;13.10;;;11.75;;
81036;SDS011;70521;47.468;19.306;2023-10-31T00:55:35;13.43;;;11.73;;
81036;SDS011;70521;47.468;19.306;2023-10-31T00:58:37;14.63;;;13.35;;
81036;SDS011;70521;47.468;19.306;2023-10-31T01:01:38;13.57;;;11.65;;
81036;SDS011;70521;47.468;19.306;2023-10-31T01:04:39;16.63;;;15.10;;
81036;SDS011;70521;47.468;19.306;2023-10-31T01:07:40;14.68;;;13.38;;
81036;SDS011;70521;47.468;19.306;2023-10-31T01:10:41;14.82;;;13.50;;
81036;SDS011;70521;47.468;19.306;2023-10-31T01:13:42;12.50;;;11.25;;
81036;SDS011;70521;47.468;19.306;2023-10-31T01:16:43;14.60;;;13.30;;
81036;SDS011;70521;47.468;19.306;2023-10-31T01:19:44;15.25;;;13.90;;
81036;SDS011;70521;47.468;19.306;2023-10-31T01:22:45;12.93;;;11.65;;
81036;SDS011;70521;47.468;19.306;2023-10-31T01:25:46;12.80;;;11.52;;
81036;SDS011;70521;47.468;19.306;2023-10-31T01:28:47;14.00;;;12.50;;
81036;SDS011;70521;47.468;19.306;2023-10-31T01:31:48;14.43;;;12.95;;
81036;SDS011;70521;47.468;19.306;2023-10-31T01:34:49;14.57;;;12.80;;
81036;SDS011;70521;47.468;19.306;2023-10-31T01:37:50;11.15;;;10.27;;
81036;SDS011;70521;47.468;19.306;2023-10-31T01:40:52;12.20;;;11.23;;
81036;SDS011;70521;47.468;19.306;2023-10-31T01:43:53;14.13;;;12.77;;
81036;SDS011;70521;47.468;19.306;2023-10-31T01:46:55;13.35;;;12.18;;
81036;SDS011;70521;47.468;19.306;2023-10-31T01:49:56;11.82;;;10.63;;
81036;SDS011;70521;47.468;19.306;2023-10-31T01:52:58;13.27;;;11.88;;
81036;SDS011;70521;47.468;19.306;2023-10-31T01:56:00;13.30;;;12.10;;
81036;SDS011;70521;47.468;19.306;2023-10-31T01:59:04;15.27;;;13.98;;
81036;SDS011;70521;47.468;19.306;2023-10-31T02:02:07;13.48;;;12.07;;
81036;SDS011;70521;47.468;19.306;2023-10-31T02:05:09;12.75;;;11.77;;
81036;SDS011;70521;47.468;19.306;2023-10-31T02:08:10;12.63;;;11.45;;
81036;SDS011;70521;47.468;19.306;2023-10-31T02:11:11;12.30;;;11.18;;
81036;SDS011;70521;47.468;19.306;2023-10-31T02:14:12;14.57;;;13.52;;
81036;SDS011;70521;47.468;19.306;2023-10-31T02:17:13;13.73;;;12.48;;
81036;SDS011;70521;47.468;19.306;2023-10-31T02:20:14;12.93;;;12.00;;
81036;SDS011;70521;47.468;19.306;2023-10-31T02:23:15;10.60;;;9.60;;
81036;SDS011;70521;47.468;19.306;2023-10-31T02:26:17;10.02;;;9.02;;
81036;SDS011;70521;47.468;19.306;2023-10-31T02:29:20;10.98;;;9.90;;
81036;SDS011;70521;47.468;19.306;2023-10-31T02:32:21;11.82;;;10.93;;
81036;SDS011;70521;47.468;19.306;2023-10-31T02:35:22;11.60;;;10.50;;
81036;SDS011;70521;47.468;19.306;2023-10-31T02:38:23;11.60;;;10.50;;
81036;SDS011;70521;47.468;19.306;2023-10-31T02:41:25;11.57;;;10.63;;
81036;SDS011;70521;47.468;19.306;2023-10-31T02:44:26;8.23;;;7.53;;
81036;SDS011;70521;47.468;19.306;2023-10-31T02:47:27;10.02;;;9.02;;
81036;SDS011;70521;47.468;19.306;2023-10-31T02:50:29;11.38;;;10.38;;
81036;SDS011;70521;47.468;19.306;2023-10-31T02:53:30;10.23;;;9.38;;
81036;SDS011;70521;47.468;19.306;2023-10-31T02:56:31;10.35;;;8.95;;
81036;SDS011;70521;47.468;19.306;2023-10-31T02:59:32;9.43;;;8.55;;
81036;SDS011;70521;47.468;19.306;2023-10-31T03:02:33;10.18;;;9.07;;
81036;SDS011;70521;47.468;19.306;2023-10-31T03:05:34;10.10;;;9.05;;
81036;SDS011;70521;47.468;19.306;2023-10-31T03:08:35;8.77;;;8.13;;
81036;SDS011;70521;47.468;19.306;2023-10-31T03:11:36;8.52;;;7.80;;
81036;SDS011;70521;47.468;19.306;2023-10-31T03:14:37;9.05;;;8.25;;
81036;SDS011;70521;47.468;19.306;2023-10-31T03:17:38;10.13;;;9.30;;
81036;SDS011;70521;47.468;19.306;2023-10-31T03:20:39;9.20;;;8.40;;
81036;SDS011;70521;47.468;19.306;2023-10-31T03:23:44;11.45;;;10.55;;
81036;SDS011;70521;47.468;19.306;2023-10-31T03:26:47;9.32;;;8.52;;
81036;SDS011;70521;47.468;19.306;2023-10-31T03:29:48;8.02;;;7.32;;
81036;SDS011;70521;47.468;19.306;2023-10-31T03:32:49;8.25;;;7.35;;
81036;SDS011;70521;47.468;19.306;2023-10-31T03:35:50;8.75;;;7.05;;
81036;SDS011;70521;47.468;19.306;2023-10-31T03:38:51;8.25;;;7.50;;
81036;SDS011;70521;47.468;19.306;2023-10-31T03:41:52;8.90;;;7.80;;
81036;SDS011;70521;47.468;19.306;2023-10-31T03:44:53;9.13;;;8.23;;
81036;SDS011;70521;47.468;19.306;2023-10-31T03:47:54;9.20;;;8.40;;
81036;SDS011;70521;47.468;19.306;2023-10-31T03:50:55;9.15;;;8.30;;
81036;SDS011;70521;47.468;19.306;2023-10-31T03:53:56;9.75;;;8.90;;
81036;SDS011;70521;47.468;19.306;2023-10-31T03:56:57;9.93;;;9.00;;
81036;SDS011;70521;47.468;19.306;2023-10-31T03:59:59;8.40;;;7.60;;
81036;SDS011;70521;47.468;19.306;2023-10-31T04:03:01;9.27;;;8.68;;
81036;SDS011;70521;47.468;19.306;2023-10-31T04:06:02;8.35;;;7.68;;
81036;SDS011;70521;47.468;19.306;2023-10-31T04:09:03;8.85;;;8.05;;
81036;SDS011;70521;47.468;19.306;2023-10-31T04:12:04;8.98;;;8.38;;
81036;SDS011;70521;47.468;19.306;2023-10-31T04:15:06;10.52;;;9.82;;
81036;SDS011;70521;47.468;19.306;2023-10-31T04:18:08;8.45;;;7.70;;
81036;SDS011;70521;47.468;19.306;2023-10-31T04:21:09;8.90;;;7.88;;
81036;SDS011;70521;47.468;19.306;2023-10-31T04:24:10;9.45;;;8.57;;
81036;SDS011;70521;47.468;19.306;2023-10-31T04:27:11;8.20;;;7.50;;
81036;SDS011;70521;47.468;19.306;2023-10-31T04:30:12;8.43;;;7.63;;
81036;SDS011;70521;47.468;19.306;2023-10-31T04:33:13;9.85;;;9.05;;
81036;SDS011;70521;47.468;19.306;2023-10-31T04:36:14;7.28;;;6.65;;
81036;SDS011;70521;47.468;19.306;2023-10-31T04:39:15;7.20;;;6.60;;
81036;SDS011;70521;47.468;19.306;2023-10-31T04:42:16;7.88;;;7.15;;
81036;SDS011;70521;47.468;19.306;2023-10-31T04:45:17;8.25;;;7.55;;
81036;SDS011;70521;47.468;19.306;2023-10-31T04:48:19;7.68;;;6.97;;
81036;SDS011;70521;47.468;19.306;2023-10-31T04:51:20;7.85;;;7.32;;
81036;SDS011;70521;47.468;19.306;2023-10-31T04:54:21;8.63;;;8.02;;
81036;SDS011;70521;47.468;19.306;2023-10-31T04:57:22;7.65;;;7.05;;
81036;SDS011;70521;47.468;19.306;2023-10-31T05:00:23;8.85;;;8.15;;
81036;SDS011;70521;47.468;19.306;2023-10-31T05:03:24;7.05;;;6.47;;
81036;SDS011;70521;47.468;19.306;2023-10-31T05:06:25;9.43;;;8.68;;
81036;SDS011;70521;47.468;19.306;2023-10-31T05:09:26;7.40;;;6.90;;
81036;SDS011;70521;47.468;19.306;2023-10-31T05:12:27;7.38;;;6.18;;
81036;SDS011;70521;47.468;19.306;2023-10-31T05:15:28;7.72;;;7.13;;
81036;SDS011;70521;47.468;19.306;2023-10-31T05:18:29;8.05;;;7.45;;
81036;SDS011;70521;47.468;19.306;2023-10-31T05:21:30;7.35;;;6.65;;
81036;SDS011;70521;47.468;19.306;2023-10-31T05:24:31;10.65;;;9.85;;
81036;SDS011;70521;47.468;19.306;2023-10-31T05:27:33;8.13;;;7.35;;
81036;SDS011;70521;47.468;19.306;2023-10-31T05:30:34;11.20;;;10.40;;
81036;SDS011;70521;47.468;19.306;2023-10-31T05:33:35;6.05;;;5.25;;
81036;SDS011;70521;47.468;19.306;2023-10-31T05:36:36;6.30;;;5.53;;
81036;SDS011;70521;47.468;19.306;2023-10-31T05:39:37;7.35;;;6.75;;
81036;SDS011;70521;47.468;19.306;2023-10-31T05:42:39;7.97;;;5.65;;
81036;SDS011;70521;47.468;19.306;2023-10-31T05:45:40;7.00;;;6.47;;
81036;SDS011;70521;47.468;19.306;2023-10-31T05:48:42;9.32;;;8.57;;
81036;SDS011;70521;47.468;19.306;2023-10-31T05:51:44;13.38;;;12.63;;
81036;SDS011;70521;47.468;19.306;2023-10-31T05:54:45;8.05;;;7.05;;
81036;SDS011;70521;47.468;19.306;2023-10-31T05:57:46;8.23;;;7.63;;
81036;SDS011;70521;47.468;19.306;2023-10-31T06:00:47;9.32;;;8.52;;
81036;SDS011;70521;47.468;19.306;2023-10-31T06:03:48;7.70;;;7.00;;
81036;SDS011;70521;47.468;19.306;2023-10-31T06:06:49;7.57;;;6.97;;
81036;SDS011;70521;47.468;19.306;2023-10-31T06:09:50;7.18;;;6.47;;
81036;SDS011;70521;47.468;19.306;2023-10-31T06:12:51;5.78;;;5.18;;
81036;SDS011;70521;47.468;19.306;2023-10-31T06:15:55;6.15;;;5.55;;
81036;SDS011;70521;47.468;19.306;2023-10-31T06:18:56;6.47;;;5.88;;
81036;SDS011;70521;47.468;19.306;2023-10-31T06:21:57;7.40;;;6.97;;
81036;SDS011;70521;47.468;19.306;2023-10-31T06:24:58;7.13;;;6.63;;
81036;SDS011;70521;47.468;19.306;2023-10-31T06:27:59;6.70;;;6.10;;
81036;SDS011;70521;47.468;19.306;2023-10-31T06:31:00;9.77;;;8.90;;
81036;SDS011;70521;47.468;19.306;2023-10-31T06:34:02;6.70;;;6.18;;
81036;SDS011;70521;47.468;19.306;2023-10-31T06:37:03;6.90;;;6.35;;
81036;SDS011;70521;47.468;19.306;2023-10-31T06:40:04;5.50;;;5.07;;
81036;SDS011;70521;47.468;19.306;2023-10-31T06:43:06;6.90;;;6.50;;
81036;SDS011;70521;47.468;19.306;2023-10-31T06:46:07;6.85;;;6.35;;
81036;SDS011;70521;47.468;19.306;2023-10-31T06:49:08;6.47;;;5.90;;
81036;SDS011;70521;47.468;19.306;2023-10-31T06:52:09;5.35;;;4.85;;
81036;SDS011;70521;47.468;19.306;2023-10-31T06:55:10;5.25;;;4.72;;
81036;SDS011;70521;47.468;19.306;2023-10-31T06:58:12;6.90;;;6.45;;
81036;SDS011;70521;47.468;19.306;2023-10-31T07:01:13;5.82;;;5.43;;
81036;SDS011;70521;47.468;19.306;2023-10-31T07:07:20;6.45;;;5.95;;
81036;SDS011;70521;47.468;19.306;2023-10-31T07:10:21;5.45;;;5.03;;
81036;SDS011;70521;47.468;19.306;2023-10-31T07:13:22;5.93;;;5.43;;
81036;SDS011;70521;47.468;19.306;2023-10-31T07:16:23;6.50;;;6.03;;
81036;SDS011;70521;47.468;19.306;2023-10-31T07:19:24;4.68;;;4.13;;
81036;SDS011;70521;47.468;19.306;2023-10-31T07:22:25;5.30;;;4.90;;
81036;SDS011;70521;47.468;19.306;2023-10-31T07:25:27;6.75;;;5.30;;
81036;SDS011;70521;47.468;19.306;2023-10-31T07:28:28;5.32;;;4.93;;
81036;SDS011;70521;47.468;19.306;2023-10-31T07:31:29;5.32;;;4.93;;
81036;SDS011;70521;47.468;19.306;2023-10-31T07:34:30;5.65;;;5.15;;
81036;SDS011;70521;47.468;19.306;2023-10-31T07:37:31;5.85;;;5.00;;
81036;SDS011;70521;47.468;19.306;2023-10-31T07:40:32;5.03;;;4.72;;
81036;SDS011;70521;47.468;19.306;2023-10-31T07:43:33;6.50;;;4.63;;
81036;SDS011;70521;47.468;19.306;2023-10-31T07:46:34;4.75;;;4.45;;
81036;SDS011;70521;47.468;19.306;2023-10-31T07:49:35;4.07;;;3.78;;
81036;SDS011;70521;47.468;19.306;2023-10-31T07:52:38;8.70;;;8.20;;
81036;SDS011;70521;47.468;19.306;2023-10-31T07:55:39;5.38;;;4.50;;
81036;SDS011;70521;47.468;19.306;2023-10-31T07:58:40;4.72;;;4.25;;
81036;SDS011;70521;47.468;19.306;2023-10-31T08:01:41;7.40;;;6.72;;
81036;SDS011;70521;47.468;19.306;2023-10-31T08:04:42;6.85;;;6.35;;
81036;SDS011;70521;47.468;19.306;2023-10-31T08:07:43;5.55;;;4.47;;
81036;SDS011;70521;47.468;19.306;2023-10-31T08:10:44;4.53;;;3.90;;
81036;SDS011;70521;47.468;19.306;2023-10-31T08:13:45;3.63;;;3.33;;
81036;SDS011;70521;47.468;19.306;2023-10-31T08:16:47;6.07;;;4.15;;
81036;SDS011;70521;47.468;19.306;2023-10-31T08:19:48;4.25;;;3.85;;
81036;SDS011;70521;47.468;19.306;2023-10-31T08:22:49;3.75;;;3.25;;
81036;SDS011;70521;47.468;19.306;2023-10-31T08:25:50;7.10;;;3.85;;
81036;SDS011;70521;47.468;19.306;2023-10-31T08:28:51;3.70;;;3.40;;
81036;SDS011;70521;47.468;19.306;2023-10-31T08:31:52;4.43;;;4.03;;
81036;SDS011;70521;47.468;19.306;2023-10-31T08:34:53;4.40;;;3.58;;
81036;SDS011;70521;47.468;19.306;2023-10-31T08:37:55;3.92;;;3.33;;
81036;SDS011;70521;47.468;19.306;2023-10-31T08:40:56;4.57;;;3.80;;
81036;SDS011;70521;47.468;19.306;2023-10-31T08:43:57;4.85;;;3.67;;
81036;SDS011;70521;47.468;19.306;2023-10-31T08:46:59;5.38;;;3.55;;
81036;SDS011;70521;47.468;19.306;2023-10-31T08:50:00;4.28;;;3.35;;
81036;SDS011;70521;47.468;19.306;2023-10-31T08:53:01;6.78;;;3.63;;
81036;SDS011;70521;47.468;19.306;2023-10-31T08:56:02;5.30;;;3.33;;
81036;SDS011;70521;47.468;19.306;2023-10-31T08:59:03;4.78;;;3.05;;
81036;SDS011;70521;47.468;19.306;2023-10-31T09:02:05;4.22;;;2.72;;
81036;SDS011;70521;47.468;19.306;2023-10-31T09:05:06;3.40;;;2.75;;
81036;SDS011;70521;47.468;19.306;2023-10-31T09:08:08;3.50;;;3.20;;
81036;SDS011;70521;47.468;19.306;2023-10-31T09:11:09;3.70;;;3.00;;
81036;SDS011;70521;47.468;19.306;2023-10-31T09:14:10;4.45;;;2.58;;
81036;SDS011;70521;47.468;19.306;2023-10-31T09:17:11;3.67;;;2.78;;
81036;SDS011;70521;47.468;19.306;2023-10-31T09:20:12;6.57;;;4.22;;
81036;SDS011;70521;47.468;19.306;2023-10-31T09:23:13;4.22;;;3.13;;
81036;SDS011;70521;47.468;19.306;2023-10-31T09:26:14;4.18;;;3.35;;
81036;SDS011;70521;47.468;19.306;2023-10-31T09:29:15;3.08;;;2.53;;
81036;SDS011;70521;47.468;19.306;2023-10-31T09:32:18;2.90;;;2.60;;
81036;SDS011;70521;47.468;19.306;2023-10-31T09:35:19;5.10;;;2.95;;
81036;SDS011;70521;47.468;19.306;2023-10-31T09:38:20;4.07;;;3.05;;
81036;SDS011;70521;47.468;19.306;2023-10-31T09:41:21;3.92;;;3.03;;
81036;SDS011;70521;47.468;19.306;2023-10-31T09:44:22;3.17;;;2.95;;
81036;SDS011;70521;47.468;19.306;2023-10-31T09:47:23;3.00;;;2.80;;
81036;SDS011;70521;47.468;19.306;2023-10-31T09:50:25;3.22;;;2.88;;
81036;SDS011;70521;47.468;19.306;2023-10-31T09:53:26;4.93;;;2.85;;
81036;SDS011;70521;47.468;19.306;2023-10-31T09:56:28;2.92;;;2.63;;
81036;SDS011;70521;47.468;19.306;2023-10-31T09:59:35;3.00;;;2.80;;
81036;SDS011;70521;47.468;19.306;2023-10-31T10:02:36;3.35;;;2.53;;
81036;SDS011;70521;47.468;19.306;2023-10-31T10:05:37;3.30;;;2.72;;
81036;SDS011;70521;47.468;19.306;2023-10-31T10:08:39;3.05;;;2.80;;
81036;SDS011;70521;47.468;19.306;2023-10-31T10:11:41;5.07;;;3.25;;
81036;SDS011;70521;47.468;19.306;2023-10-31T10:14:44;3.28;;;2.92;;
81036;SDS011;70521;47.468;19.306;2023-10-31T10:17:49;4.32;;;2.70;;
81036;SDS011;70521;47.468;19.306;2023-10-31T10:21:01;2.92;;;2.50;;
81036;SDS011;70521;47.468;19.306;2023-10-31T10:24:02;3.10;;;2.47;;
81036;SDS011;70521;47.468;19.306;2023-10-31T10:27:03;4.15;;;3.17;;
81036;SDS011;70521;47.468;19.306;2023-10-31T10:30:04;2.85;;;2.60;;
81036;SDS011;70521;47.468;19.306;2023-10-31T10:33:06;4.18;;;3.42;;
81036;SDS011;70521;47.468;19.306;2023-10-31T10:36:08;7.55;;;4.45;;
81036;SDS011;70521;47.468;19.306;2023-10-31T10:39:09;5.18;;;4.15;;
81036;SDS011;70521;47.468;19.306;2023-10-31T10:42:11;3.85;;;3.45;;
81036;SDS011;70521;47.468;19.306;2023-10-31T10:45:13;5.18;;;2.85;;
81036;SDS011;70521;47.468;19.306;2023-10-31T10:48:15;3.65;;;2.70;;
81036;SDS011;70521;47.468;19.306;2023-10-31T10:54:45;4.18;;;3.40;;
81036;SDS011;70521;47.468;19.306;2023-10-31T10:58:00;3.40;;;2.72;;
81036;SDS011;70521;47.468;19.306;2023-10-31T11:01:01;2.78;;;2.58;;
81036;SDS011;70521;47.468;19.306;2023-10-31T11:04:03;3.22;;;2.92;;
81036;SDS011;70521;47.468;19.306;2023-10-31T11:07:08;3.97;;;2.40;;
81036;SDS011;70521;47.468;19.306;2023-10-31T11:10:09;3.30;;;2.75;;
81036;SDS011;70521;47.468;19.306;2023-10-31T11:13:11;3.80;;;3.50;;
81036;SDS011;70521;47.468;19.306;2023-10-31T11:16:34;3.25;;;2.72;;
81036;SDS011;70521;47.468;19.306;2023-10-31T11:19:33;2.97;;;2.60;;
81036;SDS011;70521;47.468;19.306;2023-10-31T11:22:38;4.70;;;3.00;;
81036;SDS011;70521;47.468;19.306;2023-10-31T11:25:43;2.85;;;2.53;;
81036;SDS011;70521;47.468;19.306;2023-10-31T11:28:44;3.08;;;2.55;;
81036;SDS011;70521;47.468;19.306;2023-10-31T11:31:46;3.80;;;2.50;;
81036;SDS011;70521;47.468;19.306;2023-10-31T11:34:47;3.22;;;2.17;;
81036;SDS011;70521;47.468;19.306;2023-10-31T11:37:49;3.47;;;2.92;;
81036;SDS011;70521;47.468;19.306;2023-10-31T11:43:51;3.45;;;2.67;;
81036;SDS011;70521;47.468;19.306;2023-10-31T11:46:58;3.40;;;2.33;;
81036;SDS011;70521;47.468;19.306;2023-10-31T11:49:59;2.80;;;2.50;;
81036;SDS011;70521;47.468;19.306;2023-10-31T11:53:07;2.85;;;2.50;;
81036;SDS011;70521;47.468;19.306;2023-10-31T11:56:09;4.82;;;3.25;;
81036;SDS011;70521;47.468;19.306;2023-10-31T11:59:10;4.47;;;4.05;;
81036;SDS011;70521;47.468;19.306;2023-10-31T12:02:12;4.57;;;3.58;;
81036;SDS011;70521;47.468;19.306;2023-10-31T12:05:14;5.20;;;2.83;;
81036;SDS011;70521;47.468;19.306;2023-10-31T12:08:21;4.68;;;2.97;;
81036;SDS011;70521;47.468;19.306;2023-10-31T12:11:24;5.60;;;3.08;;
81036;SDS011;70521;47.468;19.306;2023-10-31T12:14:25;3.22;;;2.67;;
81036;SDS011;70521;47.468;19.306;2023-10-31T12:17:26;5.15;;;3.08;;
81036;SDS011;70521;47.468;19.306;2023-10-31T12:20:27;3.70;;;3.33;;
81036;SDS011;70521;47.468;19.306;2023-10-31T12:23:28;6.50;;;2.90;;
81036;SDS011;70521;47.468;19.306;2023-10-31T12:26:31;5.55;;;2.72;;
81036;SDS011;70521;47.468;19.306;2023-10-31T12:29:32;4.97;;;3.33;;
81036;SDS011;70521;47.468;19.306;2023-10-31T12:32:33;4.65;;;2.85;;
81036;SDS011;70521;47.468;19.306;2023-10-31T12:35:34;3.35;;;2.80;;
81036;SDS011;70521;47.468;19.306;2023-10-31T12:38:35;4.88;;;4.40;;
81036;SDS011;70521;47.468;19.306;2023-10-31T12:41:37;3.78;;;3.47;;
81036;SDS011;70521;47.468;19.306;2023-10-31T12:44:38;8.52;;;4.72;;
81036;SDS011;70521;47.468;19.306;2023-10-31T12:47:39;10.85;;;8.35;;
81036;SDS011;70521;47.468;19.306;2023-10-31T12:50:41;9.00;;;7.30;;
81036;SDS011;70521;47.468;19.306;2023-10-31T12:53:47;7.88;;;6.93;;
81036;SDS011;70521;47.468;19.306;2023-10-31T12:56:48;10.02;;;9.00;;
81036;SDS011;70521;47.468;19.306;2023-10-31T12:59:50;12.48;;;8.75;;
81036;SDS011;70521;47.468;19.306;2023-10-31T13:03:02;9.52;;;8.82;;
81036;SDS011;70521;47.468;19.306;2023-10-31T13:06:13;7.88;;;7.18;;
81036;SDS011;70521;47.468;19.306;2023-10-31T13:09:14;8.43;;;7.10;;
81036;SDS011;70521;47.468;19.306;2023-10-31T13:12:15;7.85;;;7.05;;
81036;SDS011;70521;47.468;19.306;2023-10-31T13:15:16;8.25;;;7.00;;
81036;SDS011;70521;47.468;19.306;2023-10-31T13:18:19;9.10;;;8.23;;
81036;SDS011;70521;47.468;19.306;2023-10-31T13:21:20;9.30;;;8.40;;
81036;SDS011;70521;47.468;19.306;2023-10-31T13:24:21;8.65;;;7.97;;
81036;SDS011;70521;47.468;19.306;2023-10-31T13:27:22;10.43;;;9.63;;
81036;SDS011;70521;47.468;19.306;2023-10-31T13:30:23;7.88;;;7.18;;
81036;SDS011;70521;47.468;19.306;2023-10-31T13:33:26;10.07;;;9.23;;
81036;SDS011;70521;47.468;19.306;2023-10-31T13:36:27;8.18;;;7.35;;
81036;SDS011;70521;47.468;19.306;2023-10-31T13:39:28;10.07;;;9.18;;
81036;SDS011;70521;47.468;19.306;2023-10-31T13:42:29;14.38;;;13.02;;
81036;SDS011;70521;47.468;19.306;2023-10-31T13:45:30;18.88;;;17.17;;
81036;SDS011;70521;47.468;19.306;2023-10-31T13:48:31;21.15;;;19.60;;
81036;SDS011;70521;47.468;19.306;2023-10-31T13:51:32;11.40;;;10.27;;
81036;SDS011;70521;47.468;19.306;2023-10-31T13:54:33;9.38;;;8.48;;
81036;SDS011;70521;47.468;19.306;2023-10-31T13:57:34;10.68;;;9.85;;
81036;SDS011;70521;47.468;19.306;2023-10-31T14:00:35;6.60;;;5.60;;
81036;SDS011;70521;47.468;19.306;2023-10-31T14:03:36;8.95;;;8.43;;
81036;SDS011;70521;47.468;19.306;2023-10-31T14:06:37;7.55;;;6.85;;
81036;SDS011;70521;47.468;19.306;2023-10-31T14:09:38;9.75;;;8.85;;
81036;SDS011;70521;47.468;19.306;2023-10-31T14:12:39;8.30;;;7.70;;
81036;SDS011;70521;47.468;19.306;2023-10-31T14:15:41;8.75;;;8.05;;
81036;SDS011;70521;47.468;19.306;2023-10-31T14:18:42;6.53;;;5.93;;
81036;SDS011;70521;47.468;19.306;2023-10-31T14:21:43;6.78;;;6.28;;
81036;SDS011;70521;47.468;19.306;2023-10-31T14:24:44;10.18;;;9.48;;
81036;SDS011;70521;47.468;19.306;2023-10-31T14:27:46;6.95;;;6.47;;
81036;SDS011;70521;47.468;19.306;2023-10-31T14:30:49;6.93;;;6.43;;
81036;SDS011;70521;47.468;19.306;2023-10-31T14:33:50;7.30;;;6.80;;
81036;SDS011;70521;47.468;19.306;2023-10-31T14:36:51;13.75;;;13.15;;
81036;SDS011;70521;47.468;19.306;2023-10-31T14:39:54;7.53;;;6.93;;
81036;SDS011;70521;47.468;19.306;2023-10-31T14:42:55;7.20;;;6.70;;
81036;SDS011;70521;47.468;19.306;2023-10-31T14:45:56;7.90;;;7.30;;
81036;SDS011;70521;47.468;19.306;2023-10-31T14:48:57;7.95;;;7.32;;
81036;SDS011;70521;47.468;19.306;2023-10-31T14:51:58;7.88;;;7.28;;
81036;SDS011;70521;47.468;19.306;2023-10-31T14:54:59;7.65;;;7.18;;
81036;SDS011;70521;47.468;19.306;2023-10-31T14:58:00;11.25;;;10.50;;
81036;SDS011;70521;47.468;19.306;2023-10-31T15:01:02;8.20;;;7.53;;
81036;SDS011;70521;47.468;19.306;2023-10-31T15:04:05;7.45;;;6.95;;
81036;SDS011;70521;47.468;19.306;2023-10-31T15:07:06;6.78;;;6.28;;
81036;SDS011;70521;47.468;19.306;2023-10-31T15:10:07;5.93;;;5.43;;
81036;SDS011;70521;47.468;19.306;2023-10-31T15:13:08;8.00;;;7.13;;
81036;SDS011;70521;47.468;19.306;2023-10-31T15:16:09;5.68;;;5.28;;
81036;SDS011;70521;47.468;19.306;2023-10-31T15:19:10;6.38;;;5.88;;
81036;SDS011;70521;47.468;19.306;2023-10-31T15:22:11;10.95;;;10.43;;
81036;SDS011;70521;47.468;19.306;2023-10-31T15:25:12;9.15;;;8.30;;
81036;SDS011;70521;47.468;19.306;2023-10-31T15:28:13;6.97;;;6.38;;
81036;SDS011;70521;47.468;19.306;2023-10-31T15:31:14;12.43;;;7.80;;
81036;SDS011;70521;47.468;19.306;2023-10-31T15:34:15;7.60;;;7.03;;
81036;SDS011;70521;47.468;19.306;2023-10-31T15:37:16;7.07;;;6.25;;
81036;SDS011;70521;47.468;19.306;2023-10-31T15:40:17;7.00;;;6.50;;
81036;SDS011;70521;47.468;19.306;2023-10-31T15:43:19;7.28;;;6.82;;
81036;SDS011;70521;47.468;19.306;2023-10-31T15:46:20;8.02;;;7.30;;
81036;SDS011;70521;47.468;19.306;2023-10-31T15:49:21;7.55;;;6.97;;
81036;SDS011;70521;47.468;19.306;2023-10-31T15:52:22;11.35;;;8.10;;
81036;SDS011;70521;47.468;19.306;2023-10-31T15:55:23;6.95;;;6.45;;
81036;SDS011;70521;47.468;19.306;2023-10-31T15:58:24;7.13;;;6.72;;
81036;SDS011;70521;47.468;19.306;2023-10-31T16:01:26;6.20;;;5.80;;
81036;SDS011;70521;47.468;19.306;2023-10-31T16:04:27;8.10;;;7.45;;
81036;SDS011;70521;47.468;19.306;2023-10-31T16:07:28;6.38;;;5.78;;
81036;SDS011;70521;47.468;19.306;2023-10-31T16:10:29;7.03;;;6.55;;
81036;SDS011;70521;47.468;19.306;2023-10-31T16:13:30;10.98;;;10.32;;
81036;SDS011;70521;47.468;19.306;2023-10-31T16:16:31;6.28;;;5.60;;
81036;SDS011;70521;47.468;19.306;2023-10-31T16:19:32;15.85;;;15.05;;
81036;SDS011;70521;47.468;19.306;2023-10-31T16:22:33;10.07;;;9.35;;
81036;SDS011;70521;47.468;19.306;2023-10-31T16:25:34;14.50;;;13.73;;
81036;SDS011;70521;47.468;19.306;2023-10-31T16:28:35;9.85;;;9.35;;
81036;SDS011;70521;47.468;19.306;2023-10-31T16:31:36;9.32;;;8.82;;
81036;SDS011;70521;47.468;19.306;2023-10-31T16:34:37;6.40;;;6.00;;
81036;SDS011;70521;47.468;19.306;2023-10-31T16:37:38;6.25;;;5.85;;
81036;SDS011;70521;47.468;19.306;2023-10-31T16:40:39;8.25;;;7.75;;
81036;SDS011;70521;47.468;19.306;2023-10-31T16:43:40;11.40;;;10.80;;
81036;SDS011;70521;47.468;19.306;2023-10-31T16:46:44;7.20;;;6.80;;
81036;SDS011;70521;47.468;19.306;2023-10-31T16:49:48;9.82;;;8.98;;
81036;SDS011;70521;47.468;19.306;2023-10-31T16:52:49;10.20;;;9.30;;
81036;SDS011;70521;47.468;19.306;2023-10-31T16:55:50;7.72;;;7.05;;
81036;SDS011;70521;47.468;19.306;2023-10-31T16:58:52;7.93;;;7.43;;
81036;SDS011;70521;47.468;19.306;2023-10-31T17:01:53;7.25;;;6.75;;
81036;SDS011;70521;47.468;19.306;2023-10-31T17:04:54;12.10;;;11.45;;
81036;SDS011;70521;47.468;19.306;2023-10-31T17:07:57;7.82;;;7.40;;
81036;SDS011;70521;47.468;19.306;2023-10-31T17:10:58;10.77;;;10.27;;
81036;SDS011;70521;47.468;19.306;2023-10-31T17:13:59;7.78;;;7.38;;
81036;SDS011;70521;47.468;19.306;2023-10-31T17:17:00;7.80;;;7.30;;
81036;SDS011;70521;47.468;19.306;2023-10-31T17:20:02;6.72;;;6.32;;
81036;SDS011;70521;47.468;19.306;2023-10-31T17:23:05;6.22;;;5.93;;
81036;SDS011;70521;47.468;19.306;2023-10-31T17:26:06;7.10;;;6.70;;
81036;SDS011;70521;47.468;19.306;2023-10-31T17:29:07;5.80;;;5.43;;
81036;SDS011;70521;47.468;19.306;2023-10-31T17:32:08;5.70;;;5.25;;
81036;SDS011;70521;47.468;19.306;2023-10-31T17:35:09;8.70;;;8.27;;
81036;SDS011;70521;47.468;19.306;2023-10-31T17:38:10;6.70;;;6.10;;
81036;SDS011;70521;47.468;19.306;2023-10-31T17:41:11;7.28;;;6.78;;
81036;SDS011;70521;47.468;19.306;2023-10-31T17:44:12;6.07;;;5.68;;
81036;SDS011;70521;47.468;19.306;2023-10-31T17:47:13;5.32;;;5.03;;
81036;SDS011;70521;47.468;19.306;2023-10-31T17:50:14;6.93;;;6.63;;
81036;SDS011;70521;47.468;19.306;2023-10-31T17:53:15;7.90;;;7.50;;
81036;SDS011;70521;47.468;19.306;2023-10-31T17:56:17;6.15;;;5.85;;
81036;SDS011;70521;47.468;19.306;2023-10-31T17:59:20;6.65;;;6.25;;